createdAt,value
2018-03-09T00:01:57.117Z,7.20
2018-03-09T00:04:23.124Z,7.10
2018-03-09T00:06:49.123Z,7.10
2018-03-09T00:09:15.126Z,7.10
2018-03-09T00:11:41.945Z,7.00
2018-03-09T00:14:07.929Z,7.00
2018-03-09T00:16:34.673Z,7.00
2018-03-09T00:19:00.639Z,6.90
2018-03-09T00:21:27.028Z,7.00
2018-03-09T00:23:53.038Z,6.90
2018-03-09T00:26:19.014Z,6.90
2018-03-09T00:28:45.013Z,6.90
2018-03-09T00:31:11.029Z,6.70
2018-03-09T00:33:36.992Z,6.60
2018-03-09T00:36:02.964Z,6.50
2018-03-09T00:38:29.709Z,6.40
2018-03-09T00:40:55.708Z,6.40
2018-03-09T00:43:21.735Z,6.40
2018-03-09T00:45:47.725Z,6.40
2018-03-09T00:48:13.738Z,6.50
2018-03-09T00:50:39.752Z,6.40
2018-03-09T00:53:10.476Z,6.20
2018-03-09T00:55:36.486Z,6.20
2018-03-09T00:58:02.460Z,6.20
2018-03-09T01:00:28.491Z,6.10
2018-03-09T01:02:55.230Z,6.10
2018-03-09T01:05:22.033Z,5.90
2018-03-09T01:07:48.007Z,5.90
2018-03-09T01:10:14.777Z,5.90
2018-03-09T01:12:41.479Z,5.90
2018-03-09T01:15:07.493Z,5.80
2018-03-09T01:17:33.456Z,5.80
2018-03-09T01:19:59.438Z,5.70
2018-03-09T01:22:26.201Z,5.70
2018-03-09T01:24:52.231Z,5.70
2018-03-09T01:27:18.961Z,5.70
2018-03-09T01:29:44.917Z,5.70
2018-03-09T01:32:11.652Z,5.70
2018-03-09T01:34:38.354Z,5.60
2018-03-09T01:37:04.351Z,5.60
2018-03-09T01:39:31.097Z,5.60
2018-03-09T01:41:57.065Z,5.60
2018-03-09T01:44:23.101Z,5.50
2018-03-09T01:46:49.111Z,5.50
2018-03-09T01:49:15.877Z,5.50
2018-03-09T01:51:42.589Z,5.30
2018-03-09T01:54:08.550Z,5.30
2018-03-09T01:56:34.524Z,5.20
2018-03-09T01:59:00.529Z,5.10
2018-03-09T02:01:27.249Z,5.00
2018-03-09T02:03:53.222Z,5.00
2018-03-09T02:06:19.990Z,5.00
2018-03-09T02:08:46.163Z,5.00
2018-03-09T02:11:12.147Z,4.90
2018-03-09T02:13:38.856Z,4.80
2018-03-09T02:16:04.846Z,4.80
2018-03-09T02:18:31.550Z,4.80
2018-03-09T02:20:57.555Z,4.70
2018-03-09T02:23:23.534Z,4.80
2018-03-09T02:25:49.541Z,4.80
2018-03-09T02:28:15.561Z,4.70
2018-03-09T02:30:41.624Z,4.70
2018-03-09T02:33:07.603Z,4.70
2018-03-09T02:35:34.365Z,4.80
2018-03-09T02:38:01.113Z,4.80
2018-03-09T02:40:27.150Z,4.80
2018-03-09T02:42:53.916Z,4.70
2018-03-09T02:45:20.664Z,4.70
2018-03-09T02:47:47.399Z,4.60
2018-03-09T02:50:13.409Z,4.60
2018-03-09T02:52:39.426Z,4.70
2018-03-09T02:55:05.386Z,4.60
2018-03-09T02:57:31.477Z,4.50
2018-03-09T02:59:57.447Z,4.50
2018-03-09T03:02:23.426Z,4.40
2018-03-09T03:04:49.431Z,4.40
2018-03-09T03:07:15.423Z,4.50
2018-03-09T03:09:41.455Z,4.50
2018-03-09T03:12:08.162Z,4.50
2018-03-09T03:14:34.171Z,4.50
2018-03-09T03:17:00.149Z,4.50
2018-03-09T03:19:26.140Z,4.40
2018-03-09T03:21:52.285Z,4.30
2018-03-09T03:24:18.282Z,4.40
2018-03-09T03:26:45.013Z,4.40
2018-03-09T03:29:10.987Z,4.40
2018-03-09T03:31:37.028Z,4.30
2018-03-09T03:34:03.030Z,4.30
2018-03-09T03:36:29.010Z,4.40
2018-03-09T03:38:55.014Z,4.30
2018-03-09T03:41:21.748Z,4.30
2018-03-09T03:43:47.760Z,4.30
2018-03-09T03:46:13.713Z,4.30
2018-03-09T03:48:39.719Z,4.30
2018-03-09T03:51:05.734Z,4.20
2018-03-09T03:53:31.730Z,4.20
2018-03-09T03:55:57.719Z,4.10
2018-03-09T03:58:23.737Z,4.20
2018-03-09T04:00:50.455Z,4.20
2018-03-09T04:03:16.461Z,4.20
2018-03-09T04:05:42.408Z,4.20
2018-03-09T04:08:08.434Z,4.10
2018-03-09T04:10:34.476Z,4.10
2018-03-09T04:13:00.477Z,4.10
2018-03-09T04:15:27.190Z,4.10
2018-03-09T04:17:53.197Z,4.00
2018-03-09T04:20:19.222Z,4.10
2018-03-09T04:22:45.184Z,4.10
2018-03-09T04:25:11.202Z,4.20
2018-03-09T04:27:37.261Z,4.10
2018-03-09T04:30:03.291Z,4.10
2018-03-09T04:32:29.259Z,4.20
2018-03-09T04:34:55.282Z,4.20
2018-03-09T04:37:21.259Z,4.20
2018-03-09T04:39:48.007Z,4.10
2018-03-09T04:42:14.765Z,4.10
2018-03-09T04:44:41.513Z,4.10
2018-03-09T04:47:08.301Z,4.20
2018-03-09T04:49:34.332Z,4.20
2018-03-09T04:52:00.296Z,4.10
2018-03-09T04:54:26.274Z,4.10
2018-03-09T04:56:53.008Z,4.20
2018-03-09T04:59:19.716Z,4.20
2018-03-09T05:01:45.707Z,4.20
2018-03-09T05:04:12.415Z,4.20
2018-03-09T05:06:38.428Z,4.20
2018-03-09T05:09:04.445Z,4.20
2018-03-09T05:11:30.450Z,4.20
2018-03-09T05:13:56.408Z,4.10
2018-03-09T05:16:23.195Z,4.10
2018-03-09T05:18:49.154Z,4.10
2018-03-09T05:21:15.163Z,4.10
2018-03-09T05:23:41.232Z,4.20
2018-03-09T05:26:07.242Z,4.10
2018-03-09T05:28:33.351Z,4.10
2018-03-09T05:31:00.089Z,4.10
2018-03-09T05:33:26.182Z,4.00
2018-03-09T05:35:52.169Z,4.00
2018-03-09T05:38:18.140Z,4.00
2018-03-09T05:40:44.126Z,4.00
2018-03-09T05:43:10.132Z,4.00
2018-03-09T05:45:36.130Z,4.10
2018-03-09T05:48:02.862Z,4.10
2018-03-09T05:50:28.858Z,4.10
2018-03-09T05:52:54.839Z,4.10
2018-03-09T05:55:20.801Z,4.20
2018-03-09T05:57:46.807Z,4.20
2018-03-09T06:00:12.837Z,4.30
2018-03-09T06:02:39.679Z,4.40
2018-03-09T06:05:05.778Z,4.30
2018-03-09T06:07:31.738Z,4.50
2018-03-09T06:09:57.782Z,4.30
2018-03-09T06:12:23.769Z,4.40
2018-03-09T06:14:51.195Z,4.40
2018-03-09T06:17:17.274Z,4.40
2018-03-09T06:19:44.049Z,4.40
2018-03-09T06:22:10.069Z,4.40
2018-03-09T06:24:36.858Z,4.50
2018-03-09T06:27:02.903Z,4.40
2018-03-09T06:29:28.943Z,4.50
2018-03-09T06:31:54.945Z,4.50
2018-03-09T06:34:20.909Z,4.60
2018-03-09T06:36:46.942Z,4.70
2018-03-09T06:39:12.950Z,4.70
2018-03-09T06:41:38.969Z,4.70
2018-03-09T06:44:05.191Z,4.80
2018-03-09T06:46:31.268Z,4.90
2018-03-09T06:48:57.228Z,4.90
2018-03-09T06:51:23.222Z,4.90
2018-03-09T06:53:49.204Z,4.90
2018-03-09T06:56:15.215Z,5.00
2018-03-09T06:58:41.945Z,5.10
2018-03-09T07:01:07.989Z,5.00
2018-03-09T07:03:34.053Z,5.10
2018-03-09T07:06:00.036Z,5.10
2018-03-09T07:08:26.046Z,5.10
2018-03-09T07:10:52.025Z,5.20
2018-03-09T07:13:18.000Z,5.20
2018-03-09T07:15:44.742Z,5.30
2018-03-09T07:18:11.519Z,5.30
2018-03-09T07:20:37.574Z,5.30
2018-03-09T07:23:03.634Z,5.20
2018-03-09T07:25:29.654Z,5.30
2018-03-09T07:27:55.646Z,5.40
2018-03-09T07:30:22.403Z,5.50
2018-03-09T07:32:49.153Z,5.50
2018-03-09T07:35:15.862Z,5.60
2018-03-09T07:37:41.899Z,5.60
2018-03-09T07:40:07.949Z,5.70
2018-03-09T07:42:34.195Z,5.70
2018-03-09T07:45:00.167Z,5.70
2018-03-09T07:47:26.878Z,5.70
2018-03-09T07:49:52.914Z,5.70
2018-03-09T07:52:18.900Z,5.70
2018-03-09T07:54:45.729Z,5.80
2018-03-09T07:57:11.807Z,5.80
2018-03-09T07:59:37.936Z,5.80
2018-03-09T08:02:04.328Z,5.80
2018-03-09T08:04:30.364Z,5.80
2018-03-09T08:06:56.448Z,5.90
2018-03-09T08:09:22.435Z,6.00
2018-03-09T08:11:48.481Z,6.10
2018-03-09T08:14:14.507Z,6.10
2018-03-09T08:16:40.508Z,6.20
2018-03-09T08:19:06.575Z,6.20
2018-03-09T08:21:32.593Z,6.30
2018-03-09T08:23:58.666Z,6.30
2018-03-09T08:26:24.695Z,6.40
2018-03-09T08:28:50.752Z,6.50
2018-03-09T08:31:16.755Z,6.50
2018-03-09T08:33:42.800Z,6.50
2018-03-09T08:36:08.836Z,6.50
2018-03-09T08:38:35.091Z,6.60
2018-03-09T08:41:01.103Z,6.70
2018-03-09T08:43:27.099Z,6.70
2018-03-09T08:45:53.891Z,6.90
2018-03-09T08:48:19.931Z,6.90
2018-03-09T08:50:45.968Z,6.90
2018-03-09T08:53:12.014Z,6.90
2018-03-09T08:55:38.033Z,7.00
2018-03-09T08:58:04.165Z,7.10
2018-03-09T09:00:30.904Z,7.10
2018-03-09T09:02:57.705Z,7.20
2018-03-09T09:05:23.711Z,7.20
2018-03-09T09:07:49.740Z,7.20
2018-03-09T09:10:15.771Z,7.20
2018-03-09T09:12:41.774Z,7.30
2018-03-09T09:15:07.839Z,7.30
2018-03-09T09:17:34.635Z,7.40
2018-03-09T09:20:00.659Z,7.40
2018-03-09T09:22:26.655Z,7.40
2018-03-09T09:24:53.437Z,7.40
2018-03-09T09:27:19.442Z,7.40
2018-03-09T09:29:45.471Z,7.40
2018-03-09T09:32:11.507Z,7.50
2018-03-09T09:34:37.599Z,7.60
2018-03-09T09:37:03.659Z,7.50
2018-03-09T09:39:29.711Z,7.60
2018-03-09T09:41:55.768Z,7.50
2018-03-09T09:44:21.787Z,7.60
2018-03-09T09:46:47.819Z,7.70
2018-03-09T09:49:13.843Z,7.70
2018-03-09T09:51:39.866Z,7.80
2018-03-09T09:54:05.927Z,7.90
2018-03-09T09:56:32.708Z,7.90
2018-03-09T09:58:58.763Z,7.80
2018-03-09T10:01:25.602Z,7.80
2018-03-09T10:03:52.386Z,8.00
2018-03-09T10:06:18.397Z,7.90
2018-03-09T10:08:45.172Z,7.90
2018-03-09T10:11:11.378Z,7.90
2018-03-09T10:13:38.318Z,8.20
2018-03-09T10:16:04.379Z,8.10
2018-03-09T10:18:30.382Z,8.10
2018-03-09T10:20:56.424Z,8.10
2018-03-09T10:23:22.423Z,8.20
2018-03-09T10:25:48.527Z,8.10
2018-03-09T10:28:14.519Z,8.20
2018-03-09T10:30:40.522Z,8.20
2018-03-09T10:33:07.324Z,8.20
2018-03-09T10:35:33.335Z,8.20
2018-03-09T10:37:59.377Z,8.30
2018-03-09T10:40:25.392Z,8.30
2018-03-09T10:42:52.195Z,8.40
2018-03-09T10:45:18.219Z,8.40
2018-03-09T10:47:44.256Z,8.30
2018-03-09T10:50:10.267Z,8.40
2018-03-09T10:52:36.367Z,8.40
2018-03-09T10:55:02.378Z,8.50
2018-03-09T10:57:28.371Z,8.50
2018-03-09T10:59:55.178Z,8.60
2018-03-09T11:02:21.231Z,8.60
2018-03-09T11:04:47.228Z,8.60
2018-03-09T11:07:13.284Z,8.70
2018-03-09T11:09:39.311Z,8.60
2018-03-09T11:12:05.381Z,8.80
2018-03-09T11:14:31.372Z,8.70
2018-03-09T11:16:57.411Z,8.80
2018-03-09T11:19:23.471Z,8.90
2018-03-09T11:21:49.546Z,8.90
2018-03-09T11:24:15.626Z,8.90
2018-03-09T11:26:41.635Z,9.10
2018-03-09T11:29:07.704Z,8.90
2018-03-09T11:31:33.728Z,8.80
2018-03-09T11:34:06.719Z,8.90
2018-03-09T11:36:32.732Z,9.20
2018-03-09T11:38:59.529Z,9.30
2018-03-09T11:41:25.540Z,9.30
2018-03-09T11:43:52.279Z,9.40
2018-03-09T11:46:19.051Z,9.50
2018-03-09T11:48:45.035Z,9.50
2018-03-09T11:51:11.072Z,9.30
2018-03-09T11:53:37.123Z,9.20
2018-03-09T11:56:03.183Z,9.40
2018-03-09T11:58:29.197Z,9.50
2018-03-09T12:00:55.224Z,9.60
2018-03-09T12:03:21.332Z,9.40
2018-03-09T12:05:47.341Z,9.40
2018-03-09T12:08:14.136Z,9.60
2018-03-09T12:10:40.232Z,9.60
2018-03-09T12:13:07.074Z,9.80
2018-03-09T12:15:33.916Z,10.00
2018-03-09T12:17:59.938Z,10.00
2018-03-09T12:20:25.991Z,10.20
2018-03-09T12:22:52.003Z,10.20
2018-03-09T12:25:18.043Z,10.40
2018-03-09T12:27:44.050Z,10.70
2018-03-09T12:30:10.105Z,11.20
2018-03-09T12:32:36.148Z,11.70
2018-03-09T12:35:02.211Z,12.80
2018-03-09T12:37:28.216Z,13.40
2018-03-09T12:39:54.310Z,14.20
2018-03-09T12:42:21.056Z,16.70
2018-03-09T12:44:47.884Z,16.70
2018-03-09T12:47:13.941Z,16.70
2018-03-09T12:49:40.129Z,16.70
2018-03-09T12:52:06.672Z,16.50
2018-03-09T12:54:32.729Z,17.20
2018-03-09T12:56:58.811Z,17.50
2018-03-09T12:59:24.912Z,17.50
2018-03-09T13:01:50.932Z,17.40
2018-03-09T13:04:17.108Z,17.50
2018-03-09T13:06:44.187Z,16.80
2018-03-09T13:09:11.199Z,16.80
2018-03-09T13:11:38.092Z,17.50
2018-03-09T13:14:04.148Z,17.80
2018-03-09T13:16:32.855Z,17.70
2018-03-09T13:18:59.590Z,17.20
2018-03-09T13:21:26.374Z,16.60
2018-03-09T13:23:53.066Z,18.20
2018-03-09T13:26:19.106Z,18.10
2018-03-09T13:28:45.070Z,18.50
2018-03-09T13:31:12.567Z,19.50
2018-03-09T13:33:39.348Z,17.40
2018-03-09T13:36:05.501Z,17.30
2018-03-09T13:38:31.487Z,16.70
2018-03-09T13:40:57.531Z,17.10
2018-03-09T13:43:24.255Z,17.40
2018-03-09T13:45:50.226Z,17.40
2018-03-09T13:48:16.949Z,17.00
2018-03-09T13:50:42.964Z,17.00
2018-03-09T13:53:09.003Z,16.40
2018-03-09T13:55:42.084Z,16.00
2018-03-09T13:58:08.146Z,16.70
2018-03-09T14:00:34.244Z,18.40
2018-03-09T14:03:00.268Z,18.00
2018-03-09T14:05:27.039Z,18.10
2018-03-09T14:07:53.016Z,18.10
2018-03-09T14:10:18.993Z,19.00
2018-03-09T14:12:45.715Z,18.30
2018-03-09T14:15:11.756Z,18.30
2018-03-09T14:17:37.848Z,17.50
2018-03-09T14:20:03.870Z,19.30
2018-03-09T14:22:30.668Z,17.00
2018-03-09T14:24:56.718Z,17.00
2018-03-09T14:27:22.728Z,17.60
2018-03-09T14:29:48.702Z,19.40
2018-03-09T14:32:14.708Z,18.90
2018-03-09T14:34:40.800Z,17.80
2018-03-09T14:37:07.639Z,15.80
2018-03-09T14:39:33.646Z,15.80
2018-03-09T14:41:59.715Z,15.80
2018-03-09T14:44:26.520Z,14.60
2018-03-09T14:46:52.465Z,14.60
2018-03-09T14:49:18.460Z,14.40
2018-03-09T14:51:45.174Z,13.60
2018-03-09T14:54:11.251Z,13.60
2018-03-09T14:56:38.009Z,13.50
2018-03-09T14:59:04.771Z,13.00
2018-03-09T15:01:30.837Z,13.00
2018-03-09T15:03:56.850Z,13.20
2018-03-09T15:06:22.798Z,12.90
2018-03-09T15:08:48.782Z,12.30
2018-03-09T15:11:15.485Z,12.00
2018-03-09T15:13:41.520Z,11.90
2018-03-09T15:16:07.522Z,12.10
2018-03-09T15:18:34.274Z,11.60
2018-03-09T15:21:00.255Z,11.60
2018-03-09T15:23:26.329Z,11.50
2018-03-09T15:25:52.365Z,11.80
2018-03-09T15:28:18.350Z,11.40
2018-03-09T15:30:44.353Z,11.30
2018-03-09T15:33:10.415Z,11.10
2018-03-09T15:35:37.234Z,10.90
2018-03-09T15:38:05.266Z,10.90
2018-03-09T15:40:31.296Z,10.90
2018-03-09T15:42:57.293Z,10.60
2018-03-09T15:45:24.042Z,10.50
2018-03-09T15:47:50.039Z,10.50
2018-03-09T15:50:16.014Z,10.70
2018-03-09T15:52:42.022Z,10.80
2018-03-09T15:55:08.090Z,10.90
2018-03-09T15:57:34.160Z,11.00
2018-03-09T16:00:00.889Z,10.90
2018-03-09T16:02:26.903Z,10.90
2018-03-09T16:04:52.936Z,10.80
2018-03-09T16:07:18.898Z,10.60
2018-03-09T16:09:45.006Z,10.60
2018-03-09T16:12:11.045Z,10.60
2018-03-09T16:14:37.114Z,10.40
2018-03-09T16:17:03.137Z,10.20
2018-03-09T16:19:29.174Z,10.20
2018-03-09T16:21:55.155Z,10.10
2018-03-09T16:24:21.888Z,10.10
2018-03-09T16:26:47.920Z,10.00
2018-03-09T16:29:13.930Z,10.00
2018-03-09T16:31:39.967Z,9.70
2018-03-09T16:34:06.077Z,9.60
2018-03-09T16:36:32.080Z,9.60
2018-03-09T16:38:58.819Z,9.40
2018-03-09T16:41:24.813Z,9.40
2018-03-09T16:43:50.856Z,9.10
2018-03-09T16:46:16.867Z,9.20
2018-03-09T16:48:42.903Z,9.30
2018-03-09T16:51:09.663Z,9.30
2018-03-09T16:53:35.748Z,9.20
2018-03-09T16:56:01.800Z,9.10
2018-03-09T16:58:28.589Z,9.00
2018-03-09T17:00:54.606Z,9.00
2018-03-09T17:03:20.635Z,9.00
2018-03-09T17:05:46.638Z,9.00
2018-03-09T17:08:13.438Z,8.70
2018-03-09T17:10:40.242Z,8.70
2018-03-09T17:13:06.282Z,8.70
2018-03-09T17:15:32.289Z,8.70
2018-03-09T17:17:59.055Z,8.50
2018-03-09T17:20:25.013Z,8.40
2018-03-09T17:22:51.016Z,8.40
2018-03-09T17:25:16.993Z,8.40
2018-03-09T17:27:43.022Z,8.30
2018-03-09T17:30:09.048Z,8.30
2018-03-09T17:32:35.105Z,8.40
2018-03-09T17:35:01.109Z,8.20
2018-03-09T17:37:27.118Z,8.10
2018-03-09T17:39:53.821Z,8.20
2018-03-09T17:42:19.838Z,8.10
2018-03-09T17:44:45.806Z,8.10
2018-03-09T17:47:11.924Z,8.10
2018-03-09T17:49:37.933Z,8.10
2018-03-09T17:52:04.003Z,8.20
2018-03-09T17:54:30.078Z,8.10
2018-03-09T17:56:56.817Z,8.10
2018-03-09T17:59:22.794Z,8.10
2018-03-09T18:01:49.549Z,8.10
2018-03-09T18:04:16.308Z,8.00
2018-03-09T18:06:43.132Z,8.00
2018-03-09T18:09:16.099Z,8.00
2018-03-09T18:11:42.155Z,7.90
2018-03-09T18:14:08.238Z,8.00
2018-03-09T18:16:34.454Z,7.80
2018-03-09T18:19:00.549Z,7.80
2018-03-09T18:21:26.622Z,7.80
2018-03-09T18:23:59.560Z,7.80
2018-03-09T18:26:25.599Z,7.80
2018-03-09T18:28:51.562Z,7.70
2018-03-09T18:31:17.521Z,7.70
2018-03-09T18:33:43.580Z,7.70
2018-03-09T18:36:09.623Z,7.60
2018-03-09T18:38:36.486Z,7.60
2018-03-09T18:41:02.511Z,7.60
2018-03-09T18:43:28.500Z,7.60
2018-03-09T18:45:54.468Z,7.50
2018-03-09T18:48:20.474Z,7.50
2018-03-09T18:50:46.447Z,7.50
2018-03-09T18:53:12.502Z,7.40
2018-03-09T18:55:39.316Z,7.40
2018-03-09T18:58:05.378Z,7.40
2018-03-09T19:00:31.411Z,7.40
2018-03-09T19:02:57.398Z,7.40
2018-03-09T19:05:23.406Z,7.40
2018-03-09T19:07:50.169Z,7.40
2018-03-09T19:10:16.930Z,7.40
2018-03-09T19:12:42.975Z,7.30
2018-03-09T19:15:09.009Z,7.30
2018-03-09T19:17:35.083Z,7.30
2018-03-09T19:20:01.108Z,7.30
2018-03-09T19:22:27.082Z,7.30
2018-03-09T19:24:53.873Z,7.30
2018-03-09T19:27:19.849Z,7.30
2018-03-09T19:29:45.998Z,7.30
2018-03-09T19:32:11.999Z,7.30
2018-03-09T19:34:38.093Z,7.20
2018-03-09T19:37:04.204Z,7.20
2018-03-09T19:39:30.201Z,7.10
2018-03-09T19:41:56.194Z,7.10
2018-03-09T19:44:22.270Z,7.10
2018-03-09T19:46:48.242Z,7.10
2018-03-09T19:49:14.239Z,7.10
2018-03-09T19:51:40.337Z,7.10
2018-03-09T19:54:06.361Z,7.10
2018-03-09T19:56:32.391Z,7.00
2018-03-09T19:58:58.380Z,7.10
2018-03-09T20:01:40.310Z,7.00
2018-03-09T20:04:06.365Z,6.90
2018-03-09T20:06:32.501Z,6.90
2018-03-09T20:08:58.474Z,6.90
2018-03-09T20:11:25.186Z,6.90
2018-03-09T20:13:51.206Z,6.90
2018-03-09T20:16:17.206Z,6.80
2018-03-09T20:18:43.187Z,6.80
2018-03-09T20:21:09.203Z,6.80
2018-03-09T20:23:35.952Z,6.80
2018-03-09T20:26:02.709Z,6.70
2018-03-09T20:28:29.457Z,6.70
2018-03-09T20:30:56.199Z,6.80
2018-03-09T20:33:22.191Z,6.80
2018-03-09T20:35:48.215Z,6.70
2018-03-09T20:38:14.183Z,6.70
2018-03-09T20:40:40.230Z,6.60
2018-03-09T20:43:06.426Z,6.60
2018-03-09T20:45:32.467Z,6.50
2018-03-09T20:47:58.498Z,6.50
2018-03-09T20:50:24.510Z,6.50
2018-03-09T20:52:51.358Z,6.60
2018-03-09T20:55:18.071Z,6.60
2018-03-09T20:57:44.086Z,6.60
2018-03-09T21:00:10.150Z,6.60
2018-03-09T21:02:36.262Z,6.50
2018-03-09T21:05:02.243Z,6.60
2018-03-09T21:07:28.229Z,6.50
2018-03-09T21:09:54.236Z,6.50
2018-03-09T21:12:20.210Z,6.40
2018-03-09T21:14:46.218Z,6.30
2018-03-09T21:17:13.006Z,6.30
2018-03-09T21:19:39.077Z,6.30
2018-03-09T21:22:05.191Z,6.30
2018-03-09T21:24:31.185Z,6.20
2018-03-09T21:26:57.939Z,6.20
2018-03-09T21:29:24.697Z,6.20
2018-03-09T21:31:51.453Z,6.10
2018-03-09T21:34:18.172Z,6.10
2018-03-09T21:36:44.173Z,6.10
2018-03-09T21:39:10.222Z,6.10
2018-03-09T21:41:36.303Z,6.10
2018-03-09T21:44:03.021Z,6.00
2018-03-09T21:46:29.018Z,6.00
2018-03-09T21:48:55.034Z,5.90
2018-03-09T21:51:21.746Z,5.90
2018-03-09T21:53:47.745Z,5.90
2018-03-09T21:56:13.714Z,5.90
2018-03-09T21:58:39.787Z,5.80
2018-03-09T22:01:05.873Z,5.80
2018-03-09T22:03:31.875Z,5.80
2018-03-09T22:05:58.633Z,5.80
2018-03-09T22:08:25.334Z,5.70
2018-03-09T22:10:51.285Z,5.70
2018-03-09T22:13:17.295Z,5.80
2018-03-09T22:15:43.323Z,5.70
2018-03-09T22:18:09.380Z,5.70
2018-03-09T22:20:35.393Z,5.70
2018-03-09T22:23:01.368Z,5.70
2018-03-09T22:25:27.353Z,5.70
2018-03-09T22:27:53.368Z,5.70
2018-03-09T22:30:20.082Z,5.60
2018-03-09T22:32:46.107Z,5.60
2018-03-09T22:35:12.106Z,5.70
2018-03-09T22:37:38.893Z,5.60
2018-03-09T22:40:04.922Z,5.60
2018-03-09T22:42:30.890Z,5.60
2018-03-09T22:44:56.925Z,5.70
2018-03-09T22:47:22.889Z,5.60
2018-03-09T22:49:49.619Z,5.50
2018-03-09T22:52:15.655Z,5.50
2018-03-09T22:54:41.627Z,5.40
2018-03-09T22:57:08.474Z,5.40
2018-03-09T22:59:34.491Z,5.30
2018-03-09T23:02:00.461Z,5.30
2018-03-09T23:04:27.214Z,5.30
2018-03-09T23:06:53.960Z,5.30
2018-03-09T23:09:20.742Z,5.20
2018-03-09T23:11:46.717Z,5.20
2018-03-09T23:14:12.722Z,5.20
2018-03-09T23:16:38.823Z,5.20
2018-03-09T23:19:05.674Z,5.20
2018-03-09T23:21:32.420Z,5.20
2018-03-09T23:23:59.160Z,5.20
2018-03-09T23:26:25.132Z,5.20
2018-03-09T23:28:51.874Z,5.30
2018-03-09T23:31:18.572Z,5.30
2018-03-09T23:33:44.562Z,5.30
2018-03-09T23:36:11.293Z,5.30
2018-03-09T23:38:37.313Z,5.30
2018-03-09T23:41:03.307Z,5.30
2018-03-09T23:43:30.041Z,5.20
2018-03-09T23:45:56.136Z,5.20
2018-03-09T23:48:22.073Z,5.20
2018-03-09T23:50:48.099Z,5.20
2018-03-09T23:53:14.060Z,5.20
2018-03-09T23:55:40.059Z,5.20
2018-03-09T23:58:06.123Z,5.30
